sensor_id;sensor_type;location;lat;lon;timestamp;P1;durP1;ratioP1;P2;durP2;ratioP2
22677;SDS011;26259;50.214;18.620;2023-01-24T00:01:19;64.43;;;32.77;;
22677;SDS011;26259;50.214;18.620;2023-01-24T00:03:46;68.17;;;33.10;;
22677;SDS011;26259;50.214;18.620;2023-01-24T00:06:11;60.83;;;33.40;;
22677;SDS011;26259;50.214;18.620;2023-01-24T00:08:37;62.70;;;33.57;;
22677;SDS011;26259;50.214;18.620;2023-01-24T00:11:07;60.53;;;32.80;;
22677;SDS011;26259;50.214;18.620;2023-01-24T00:13:35;63.40;;;33.37;;
22677;SDS011;26259;50.214;18.620;2023-01-24T00:18:27;59.17;;;31.73;;
22677;SDS011;26259;50.214;18.620;2023-01-24T00:20:59;54.87;;;31.23;;
22677;SDS011;26259;50.214;18.620;2023-01-24T00:23:25;59.67;;;32.00;;
22677;SDS011;26259;50.214;18.620;2023-01-24T00:25:51;58.17;;;30.33;;
22677;SDS011;26259;50.214;18.620;2023-01-24T00:28:16;61.13;;;31.67;;
22677;SDS011;26259;50.214;18.620;2023-01-24T00:30:42;59.60;;;32.40;;
22677;SDS011;26259;50.214;18.620;2023-01-24T00:33:07;58.40;;;30.93;;
22677;SDS011;26259;50.214;18.620;2023-01-24T00:35:33;59.50;;;32.60;;
22677;SDS011;26259;50.214;18.620;2023-01-24T00:37:58;59.70;;;32.70;;
22677;SDS011;26259;50.214;18.620;2023-01-24T00:40:24;54.70;;;30.77;;
22677;SDS011;26259;50.214;18.620;2023-01-24T00:42:50;56.00;;;30.43;;
22677;SDS011;26259;50.214;18.620;2023-01-24T00:45:16;62.47;;;32.10;;
22677;SDS011;26259;50.214;18.620;2023-01-24T00:47:42;51.80;;;30.47;;
22677;SDS011;26259;50.214;18.620;2023-01-24T00:50:07;54.40;;;29.87;;
22677;SDS011;26259;50.214;18.620;2023-01-24T00:52:33;58.57;;;30.77;;
22677;SDS011;26259;50.214;18.620;2023-01-24T00:54:59;56.30;;;30.87;;
22677;SDS011;26259;50.214;18.620;2023-01-24T00:57:24;59.23;;;31.53;;
22677;SDS011;26259;50.214;18.620;2023-01-24T00:59:50;55.53;;;30.53;;
22677;SDS011;26259;50.214;18.620;2023-01-24T01:02:16;57.97;;;30.90;;
22677;SDS011;26259;50.214;18.620;2023-01-24T01:04:41;60.33;;;32.50;;
22677;SDS011;26259;50.214;18.620;2023-01-24T01:07:07;65.67;;;32.17;;
22677;SDS011;26259;50.214;18.620;2023-01-24T01:09:32;57.17;;;29.03;;
22677;SDS011;26259;50.214;18.620;2023-01-24T01:11:58;55.93;;;30.80;;
22677;SDS011;26259;50.214;18.620;2023-01-24T01:14:23;55.73;;;30.30;;
22677;SDS011;26259;50.214;18.620;2023-01-24T01:16:49;57.67;;;31.30;;
22677;SDS011;26259;50.214;18.620;2023-01-24T01:19:14;59.67;;;31.70;;
22677;SDS011;26259;50.214;18.620;2023-01-24T01:21:40;52.13;;;29.70;;
22677;SDS011;26259;50.214;18.620;2023-01-24T01:24:09;60.17;;;31.50;;
22677;SDS011;26259;50.214;18.620;2023-01-24T01:26:35;58.97;;;32.50;;
22677;SDS011;26259;50.214;18.620;2023-01-24T01:29:00;55.43;;;31.13;;
22677;SDS011;26259;50.214;18.620;2023-01-24T01:31:26;58.07;;;30.67;;
22677;SDS011;26259;50.214;18.620;2023-01-24T01:33:51;55.87;;;30.10;;
22677;SDS011;26259;50.214;18.620;2023-01-24T01:36:17;58.37;;;31.00;;
22677;SDS011;26259;50.214;18.620;2023-01-24T01:38:43;57.37;;;30.30;;
22677;SDS011;26259;50.214;18.620;2023-01-24T01:41:09;53.13;;;30.10;;
22677;SDS011;26259;50.214;18.620;2023-01-24T01:43:37;59.50;;;30.87;;
22677;SDS011;26259;50.214;18.620;2023-01-24T01:46:23;56.50;;;31.17;;
22677;SDS011;26259;50.214;18.620;2023-01-24T01:48:53;58.03;;;31.37;;
22677;SDS011;26259;50.214;18.620;2023-01-24T01:51:22;54.77;;;29.90;;
22677;SDS011;26259;50.214;18.620;2023-01-24T01:53:54;58.53;;;31.60;;
22677;SDS011;26259;50.214;18.620;2023-01-24T01:59:06;57.53;;;30.67;;
22677;SDS011;26259;50.214;18.620;2023-01-24T02:01:53;58.77;;;32.10;;
22677;SDS011;26259;50.214;18.620;2023-01-24T02:04:22;60.40;;;32.80;;
22677;SDS011;26259;50.214;18.620;2023-01-24T02:09:42;61.87;;;32.17;;
22677;SDS011;26259;50.214;18.620;2023-01-24T02:12:11;58.13;;;31.60;;
22677;SDS011;26259;50.214;18.620;2023-01-24T02:14:42;57.70;;;30.43;;
22677;SDS011;26259;50.214;18.620;2023-01-24T02:17:30;59.37;;;30.80;;
22677;SDS011;26259;50.214;18.620;2023-01-24T02:20:00;60.27;;;31.70;;
22677;SDS011;26259;50.214;18.620;2023-01-24T02:28:11;63.40;;;32.63;;
22677;SDS011;26259;50.214;18.620;2023-01-24T02:30:38;64.67;;;32.20;;
22677;SDS011;26259;50.214;18.620;2023-01-24T02:33:13;65.27;;;32.00;;
22677;SDS011;26259;50.214;18.620;2023-01-24T02:35:41;64.33;;;32.27;;
22677;SDS011;26259;50.214;18.620;2023-01-24T02:38:11;63.70;;;33.93;;
22677;SDS011;26259;50.214;18.620;2023-01-24T02:40:50;63.00;;;33.17;;
22677;SDS011;26259;50.214;18.620;2023-01-24T02:43:19;64.97;;;34.00;;
22677;SDS011;26259;50.214;18.620;2023-01-24T02:45:47;70.03;;;34.90;;
22677;SDS011;26259;50.214;18.620;2023-01-24T02:48:12;66.93;;;33.87;;
22677;SDS011;26259;50.214;18.620;2023-01-24T02:50:38;67.33;;;35.80;;
22677;SDS011;26259;50.214;18.620;2023-01-24T02:53:22;75.03;;;35.47;;
22677;SDS011;26259;50.214;18.620;2023-01-24T02:56:00;71.53;;;35.17;;
22677;SDS011;26259;50.214;18.620;2023-01-24T02:58:46;65.77;;;35.83;;
22677;SDS011;26259;50.214;18.620;2023-01-24T03:01:12;70.90;;;36.03;;
22677;SDS011;26259;50.214;18.620;2023-01-24T03:03:42;68.53;;;35.73;;
22677;SDS011;26259;50.214;18.620;2023-01-24T03:06:09;67.97;;;35.50;;
22677;SDS011;26259;50.214;18.620;2023-01-24T03:08:38;70.43;;;34.20;;
22677;SDS011;26259;50.214;18.620;2023-01-24T03:11:04;73.03;;;33.83;;
22677;SDS011;26259;50.214;18.620;2023-01-24T03:13:30;74.47;;;35.37;;
22677;SDS011;26259;50.214;18.620;2023-01-24T03:16:16;72.23;;;34.43;;
22677;SDS011;26259;50.214;18.620;2023-01-24T03:19:00;75.33;;;34.77;;
22677;SDS011;26259;50.214;18.620;2023-01-24T03:21:45;82.97;;;37.53;;
22677;SDS011;26259;50.214;18.620;2023-01-24T03:24:29;82.83;;;37.27;;
22677;SDS011;26259;50.214;18.620;2023-01-24T03:27:14;72.90;;;36.13;;
22677;SDS011;26259;50.214;18.620;2023-01-24T03:29:58;79.50;;;38.00;;
22677;SDS011;26259;50.214;18.620;2023-01-24T03:32:42;73.83;;;36.97;;
22677;SDS011;26259;50.214;18.620;2023-01-24T03:35:27;75.20;;;38.23;;
22677;SDS011;26259;50.214;18.620;2023-01-24T03:37:53;75.27;;;35.77;;
22677;SDS011;26259;50.214;18.620;2023-01-24T03:40:38;78.87;;;37.90;;
22677;SDS011;26259;50.214;18.620;2023-01-24T03:43:04;74.60;;;36.50;;
22677;SDS011;26259;50.214;18.620;2023-01-24T03:45:31;74.43;;;35.87;;
22677;SDS011;26259;50.214;18.620;2023-01-24T03:48:00;75.97;;;37.30;;
22677;SDS011;26259;50.214;18.620;2023-01-24T03:50:35;86.43;;;37.60;;
22677;SDS011;26259;50.214;18.620;2023-01-24T03:53:20;80.33;;;38.33;;
22677;SDS011;26259;50.214;18.620;2023-01-24T03:55:56;73.40;;;35.87;;
22677;SDS011;26259;50.214;18.620;2023-01-24T03:58:24;92.83;;;36.93;;
22677;SDS011;26259;50.214;18.620;2023-01-24T04:00:51;77.43;;;36.10;;
22677;SDS011;26259;50.214;18.620;2023-01-24T04:03:17;79.30;;;37.03;;
22677;SDS011;26259;50.214;18.620;2023-01-24T04:05:43;77.43;;;36.00;;
22677;SDS011;26259;50.214;18.620;2023-01-24T04:08:11;76.83;;;37.87;;
22677;SDS011;26259;50.214;18.620;2023-01-24T04:10:36;116.77;;;49.97;;
22677;SDS011;26259;50.214;18.620;2023-01-24T04:13:02;82.20;;;40.47;;
22677;SDS011;26259;50.214;18.620;2023-01-24T04:15:29;99.40;;;46.43;;
22677;SDS011;26259;50.214;18.620;2023-01-24T04:17:57;81.13;;;35.60;;
22677;SDS011;26259;50.214;18.620;2023-01-24T04:20:24;91.93;;;40.03;;
22677;SDS011;26259;50.214;18.620;2023-01-24T04:22:52;92.03;;;43.07;;
22677;SDS011;26259;50.214;18.620;2023-01-24T04:25:18;118.10;;;50.23;;
22677;SDS011;26259;50.214;18.620;2023-01-24T04:27:44;90.67;;;40.53;;
22677;SDS011;26259;50.214;18.620;2023-01-24T04:30:10;117.87;;;52.53;;
22677;SDS011;26259;50.214;18.620;2023-01-24T04:32:38;131.50;;;56.23;;
22677;SDS011;26259;50.214;18.620;2023-01-24T04:35:04;85.30;;;40.03;;
22677;SDS011;26259;50.214;18.620;2023-01-24T04:37:31;119.90;;;48.57;;
22677;SDS011;26259;50.214;18.620;2023-01-24T04:39:57;77.33;;;35.67;;
22677;SDS011;26259;50.214;18.620;2023-01-24T04:42:23;94.97;;;41.70;;
22677;SDS011;26259;50.214;18.620;2023-01-24T04:44:49;90.23;;;41.30;;
22677;SDS011;26259;50.214;18.620;2023-01-24T04:47:14;94.57;;;43.33;;
22677;SDS011;26259;50.214;18.620;2023-01-24T04:49:40;97.30;;;40.87;;
22677;SDS011;26259;50.214;18.620;2023-01-24T04:52:07;95.70;;;42.70;;
22677;SDS011;26259;50.214;18.620;2023-01-24T04:54:37;87.10;;;40.53;;
22677;SDS011;26259;50.214;18.620;2023-01-24T04:57:03;88.33;;;39.77;;
22677;SDS011;26259;50.214;18.620;2023-01-24T04:59:30;90.87;;;37.87;;
22677;SDS011;26259;50.214;18.620;2023-01-24T05:01:55;86.50;;;39.53;;
22677;SDS011;26259;50.214;18.620;2023-01-24T05:04:21;99.27;;;44.97;;
22677;SDS011;26259;50.214;18.620;2023-01-24T05:06:46;94.47;;;41.20;;
22677;SDS011;26259;50.214;18.620;2023-01-24T05:09:12;89.20;;;40.17;;
22677;SDS011;26259;50.214;18.620;2023-01-24T05:11:38;98.87;;;42.37;;
22677;SDS011;26259;50.214;18.620;2023-01-24T05:14:03;91.97;;;41.87;;
22677;SDS011;26259;50.214;18.620;2023-01-24T05:16:29;99.70;;;43.57;;
22677;SDS011;26259;50.214;18.620;2023-01-24T05:18:55;95.00;;;43.30;;
22677;SDS011;26259;50.214;18.620;2023-01-24T05:21:20;102.17;;;44.57;;
22677;SDS011;26259;50.214;18.620;2023-01-24T05:23:50;96.40;;;43.43;;
22677;SDS011;26259;50.214;18.620;2023-01-24T05:26:17;116.00;;;49.70;;
22677;SDS011;26259;50.214;18.620;2023-01-24T05:28:43;97.40;;;44.27;;
22677;SDS011;26259;50.214;18.620;2023-01-24T05:31:09;92.30;;;44.23;;
22677;SDS011;26259;50.214;18.620;2023-01-24T05:33:35;96.27;;;42.27;;
22677;SDS011;26259;50.214;18.620;2023-01-24T05:36:02;94.93;;;46.07;;
22677;SDS011;26259;50.214;18.620;2023-01-24T05:38:30;99.53;;;47.27;;
22677;SDS011;26259;50.214;18.620;2023-01-24T05:41:06;87.90;;;44.20;;
22677;SDS011;26259;50.214;18.620;2023-01-24T05:43:33;104.87;;;46.90;;
22677;SDS011;26259;50.214;18.620;2023-01-24T05:46:00;96.43;;;45.47;;
22677;SDS011;26259;50.214;18.620;2023-01-24T05:48:27;102.93;;;50.80;;
22677;SDS011;26259;50.214;18.620;2023-01-24T05:51:03;93.37;;;45.27;;
22677;SDS011;26259;50.214;18.620;2023-01-24T05:53:33;105.97;;;47.47;;
22677;SDS011;26259;50.214;18.620;2023-01-24T05:56:03;96.97;;;46.13;;
22677;SDS011;26259;50.214;18.620;2023-01-24T05:58:32;113.53;;;55.90;;
22677;SDS011;26259;50.214;18.620;2023-01-24T06:00:59;103.40;;;49.27;;
22677;SDS011;26259;50.214;18.620;2023-01-24T06:03:25;92.07;;;45.73;;
22677;SDS011;26259;50.214;18.620;2023-01-24T06:05:51;102.33;;;47.93;;
22677;SDS011;26259;50.214;18.620;2023-01-24T06:08:19;99.60;;;46.53;;
22677;SDS011;26259;50.214;18.620;2023-01-24T06:10:45;94.93;;;45.43;;
22677;SDS011;26259;50.214;18.620;2023-01-24T06:13:11;97.37;;;47.63;;
22677;SDS011;26259;50.214;18.620;2023-01-24T06:15:38;104.57;;;47.27;;
22677;SDS011;26259;50.214;18.620;2023-01-24T06:18:04;97.17;;;45.37;;
22677;SDS011;26259;50.214;18.620;2023-01-24T06:20:31;95.70;;;49.33;;
22677;SDS011;26259;50.214;18.620;2023-01-24T06:23:09;97.40;;;46.77;;
22677;SDS011;26259;50.214;18.620;2023-01-24T06:25:40;104.23;;;48.23;;
22677;SDS011;26259;50.214;18.620;2023-01-24T06:28:07;94.03;;;46.30;;
22677;SDS011;26259;50.214;18.620;2023-01-24T06:30:34;113.77;;;54.70;;
22677;SDS011;26259;50.214;18.620;2023-01-24T06:38:30;91.17;;;43.10;;
22677;SDS011;26259;50.214;18.620;2023-01-24T06:40:57;79.67;;;40.43;;
22677;SDS011;26259;50.214;18.620;2023-01-24T06:43:25;85.43;;;41.67;;
22677;SDS011;26259;50.214;18.620;2023-01-24T06:45:50;90.67;;;43.33;;
22677;SDS011;26259;50.214;18.620;2023-01-24T06:48:16;81.53;;;39.23;;
22677;SDS011;26259;50.214;18.620;2023-01-24T06:50:42;78.70;;;38.00;;
22677;SDS011;26259;50.214;18.620;2023-01-24T06:53:08;66.20;;;35.63;;
22677;SDS011;26259;50.214;18.620;2023-01-24T06:55:34;69.53;;;36.60;;
22677;SDS011;26259;50.214;18.620;2023-01-24T06:58:00;68.60;;;35.53;;
22677;SDS011;26259;50.214;18.620;2023-01-24T07:00:27;66.23;;;35.50;;
22677;SDS011;26259;50.214;18.620;2023-01-24T07:02:57;70.80;;;36.57;;
22677;SDS011;26259;50.214;18.620;2023-01-24T07:05:31;62.83;;;33.07;;
22677;SDS011;26259;50.214;18.620;2023-01-24T07:07:57;66.83;;;35.43;;
22677;SDS011;26259;50.214;18.620;2023-01-24T07:10:23;71.13;;;35.47;;
22677;SDS011;26259;50.214;18.620;2023-01-24T07:12:49;67.03;;;35.03;;
22677;SDS011;26259;50.214;18.620;2023-01-24T07:15:14;70.27;;;34.20;;
22677;SDS011;26259;50.214;18.620;2023-01-24T07:17:40;61.70;;;33.73;;
22677;SDS011;26259;50.214;18.620;2023-01-24T07:20:06;67.80;;;35.23;;
22677;SDS011;26259;50.214;18.620;2023-01-24T07:22:34;62.70;;;33.23;;
22677;SDS011;26259;50.214;18.620;2023-01-24T07:25:02;63.93;;;33.97;;
22677;SDS011;26259;50.214;18.620;2023-01-24T07:27:28;59.17;;;33.13;;
22677;SDS011;26259;50.214;18.620;2023-01-24T07:29:54;61.00;;;34.17;;
22677;SDS011;26259;50.214;18.620;2023-01-24T07:32:19;58.77;;;31.63;;
22677;SDS011;26259;50.214;18.620;2023-01-24T07:34:45;54.83;;;31.10;;
22677;SDS011;26259;50.214;18.620;2023-01-24T07:37:10;57.03;;;30.80;;
22677;SDS011;26259;50.214;18.620;2023-01-24T07:39:36;55.77;;;32.33;;
22677;SDS011;26259;50.214;18.620;2023-01-24T07:42:01;58.23;;;31.17;;
22677;SDS011;26259;50.214;18.620;2023-01-24T07:44:27;52.73;;;30.17;;
22677;SDS011;26259;50.214;18.620;2023-01-24T07:46:53;55.20;;;30.40;;
22677;SDS011;26259;50.214;18.620;2023-01-24T07:49:18;45.80;;;27.23;;
22677;SDS011;26259;50.214;18.620;2023-01-24T07:51:44;52.43;;;28.83;;
22677;SDS011;26259;50.214;18.620;2023-01-24T07:54:13;45.43;;;26.73;;
22677;SDS011;26259;50.214;18.620;2023-01-24T07:56:39;45.37;;;26.97;;
22677;SDS011;26259;50.214;18.620;2023-01-24T07:59:04;42.43;;;25.00;;
22677;SDS011;26259;50.214;18.620;2023-01-24T08:01:30;36.90;;;23.60;;
22677;SDS011;26259;50.214;18.620;2023-01-24T08:03:56;41.57;;;23.63;;
22677;SDS011;26259;50.214;18.620;2023-01-24T08:06:22;45.33;;;23.60;;
22677;SDS011;26259;50.214;18.620;2023-01-24T08:08:48;41.77;;;23.53;;
22677;SDS011;26259;50.214;18.620;2023-01-24T08:11:14;38.07;;;22.23;;
22677;SDS011;26259;50.214;18.620;2023-01-24T08:13:42;40.00;;;21.93;;
22677;SDS011;26259;50.214;18.620;2023-01-24T08:16:08;40.43;;;20.73;;
22677;SDS011;26259;50.214;18.620;2023-01-24T08:18:34;37.57;;;20.50;;
22677;SDS011;26259;50.214;18.620;2023-01-24T08:21:02;36.33;;;20.33;;
22677;SDS011;26259;50.214;18.620;2023-01-24T08:23:29;34.93;;;20.43;;
22677;SDS011;26259;50.214;18.620;2023-01-24T08:25:56;35.43;;;20.33;;
22677;SDS011;26259;50.214;18.620;2023-01-24T08:28:22;31.27;;;19.10;;
22677;SDS011;26259;50.214;18.620;2023-01-24T08:30:49;33.67;;;21.83;;
22677;SDS011;26259;50.214;18.620;2023-01-24T08:33:14;35.73;;;22.93;;
22677;SDS011;26259;50.214;18.620;2023-01-24T08:35:44;36.83;;;23.30;;
22677;SDS011;26259;50.214;18.620;2023-01-24T08:38:11;33.23;;;22.27;;
22677;SDS011;26259;50.214;18.620;2023-01-24T08:40:37;37.40;;;23.07;;
22677;SDS011;26259;50.214;18.620;2023-01-24T08:43:02;36.80;;;22.27;;
22677;SDS011;26259;50.214;18.620;2023-01-24T08:45:29;36.47;;;21.20;;
22677;SDS011;26259;50.214;18.620;2023-01-24T08:47:55;30.43;;;20.30;;
22677;SDS011;26259;50.214;18.620;2023-01-24T08:50:20;35.30;;;20.17;;
22677;SDS011;26259;50.214;18.620;2023-01-24T08:52:47;37.87;;;22.27;;
22677;SDS011;26259;50.214;18.620;2023-01-24T08:55:13;41.53;;;23.90;;
22677;SDS011;26259;50.214;18.620;2023-01-24T08:57:38;40.20;;;23.57;;
22677;SDS011;26259;50.214;18.620;2023-01-24T09:00:04;40.10;;;22.50;;
22677;SDS011;26259;50.214;18.620;2023-01-24T09:02:31;40.43;;;21.60;;
22677;SDS011;26259;50.214;18.620;2023-01-24T09:04:57;42.37;;;23.43;;
22677;SDS011;26259;50.214;18.620;2023-01-24T09:07:23;49.60;;;29.03;;
22677;SDS011;26259;50.214;18.620;2023-01-24T09:09:49;54.73;;;30.53;;
22677;SDS011;26259;50.214;18.620;2023-01-24T09:12:15;57.73;;;32.40;;
22677;SDS011;26259;50.214;18.620;2023-01-24T09:14:41;68.77;;;36.20;;
22677;SDS011;26259;50.214;18.620;2023-01-24T09:17:06;62.17;;;34.17;;
22677;SDS011;26259;50.214;18.620;2023-01-24T09:19:32;68.10;;;36.03;;
22677;SDS011;26259;50.214;18.620;2023-01-24T09:21:57;62.03;;;33.80;;
22677;SDS011;26259;50.214;18.620;2023-01-24T09:24:23;70.00;;;41.73;;
22677;SDS011;26259;50.214;18.620;2023-01-24T09:26:49;53.90;;;30.23;;
22677;SDS011;26259;50.214;18.620;2023-01-24T09:29:15;64.10;;;31.77;;
22677;SDS011;26259;50.214;18.620;2023-01-24T09:31:40;53.57;;;29.43;;
22677;SDS011;26259;50.214;18.620;2023-01-24T09:34:06;52.47;;;28.90;;
22677;SDS011;26259;50.214;18.620;2023-01-24T09:36:32;61.00;;;31.30;;
22677;SDS011;26259;50.214;18.620;2023-01-24T09:38:58;61.93;;;28.00;;
22677;SDS011;26259;50.214;18.620;2023-01-24T09:41:48;54.23;;;28.43;;
22677;SDS011;26259;50.214;18.620;2023-01-24T09:44:34;60.13;;;28.50;;
22677;SDS011;26259;50.214;18.620;2023-01-24T09:47:23;52.43;;;26.00;;
22677;SDS011;26259;50.214;18.620;2023-01-24T09:50:19;56.07;;;26.53;;
22677;SDS011;26259;50.214;18.620;2023-01-24T09:53:04;58.10;;;27.93;;
22677;SDS011;26259;50.214;18.620;2023-01-24T09:55:34;54.87;;;27.67;;
22677;SDS011;26259;50.214;18.620;2023-01-24T10:00:37;52.60;;;26.87;;
22677;SDS011;26259;50.214;18.620;2023-01-24T10:03:08;55.83;;;27.33;;
22677;SDS011;26259;50.214;18.620;2023-01-24T10:05:42;67.40;;;30.67;;
22677;SDS011;26259;50.214;18.620;2023-01-24T10:13:45;70.03;;;32.70;;
22677;SDS011;26259;50.214;18.620;2023-01-24T10:16:33;65.90;;;31.43;;
22677;SDS011;26259;50.214;18.620;2023-01-24T10:22:00;72.47;;;32.60;;
22677;SDS011;26259;50.214;18.620;2023-01-24T10:24:34;80.60;;;37.10;;
22677;SDS011;26259;50.214;18.620;2023-01-24T10:27:13;80.97;;;38.23;;
22677;SDS011;26259;50.214;18.620;2023-01-24T10:29:52;89.57;;;37.60;;
22677;SDS011;26259;50.214;18.620;2023-01-24T10:32:25;81.33;;;36.03;;
22677;SDS011;26259;50.214;18.620;2023-01-24T10:35:01;73.10;;;34.87;;
22677;SDS011;26259;50.214;18.620;2023-01-24T10:37:37;84.73;;;38.10;;
22677;SDS011;26259;50.214;18.620;2023-01-24T10:40:13;81.97;;;39.00;;
22677;SDS011;26259;50.214;18.620;2023-01-24T10:42:41;81.70;;;37.60;;
22677;SDS011;26259;50.214;18.620;2023-01-24T10:45:24;75.47;;;35.67;;
22677;SDS011;26259;50.214;18.620;2023-01-24T10:50:35;83.93;;;39.00;;
22677;SDS011;26259;50.214;18.620;2023-01-24T10:53:27;80.77;;;37.60;;
22677;SDS011;26259;50.214;18.620;2023-01-24T10:55:59;90.57;;;41.53;;
22677;SDS011;26259;50.214;18.620;2023-01-24T11:00:57;78.03;;;36.70;;
22677;SDS011;26259;50.214;18.620;2023-01-24T11:03:28;74.20;;;35.27;;
22677;SDS011;26259;50.214;18.620;2023-01-24T11:05:56;73.23;;;32.73;;
22677;SDS011;26259;50.214;18.620;2023-01-24T11:08:23;70.33;;;33.93;;
22677;SDS011;26259;50.214;18.620;2023-01-24T11:10:52;59.17;;;31.63;;
22677;SDS011;26259;50.214;18.620;2023-01-24T11:15:51;65.30;;;31.70;;
22677;SDS011;26259;50.214;18.620;2023-01-24T11:18:21;60.07;;;31.10;;
22677;SDS011;26259;50.214;18.620;2023-01-24T11:23:41;59.60;;;30.43;;
22677;SDS011;26259;50.214;18.620;2023-01-24T11:26:51;59.73;;;29.40;;
22677;SDS011;26259;50.214;18.620;2023-01-24T11:29:04;63.30;;;29.73;;
22677;SDS011;26259;50.214;18.620;2023-01-24T11:31:44;59.87;;;30.07;;
22677;SDS011;26259;50.214;18.620;2023-01-24T11:42:59;70.70;;;34.60;;
22677;SDS011;26259;50.214;18.620;2023-01-24T11:48:57;66.17;;;33.23;;
22677;SDS011;26259;50.214;18.620;2023-01-24T11:51:53;66.87;;;33.33;;
22677;SDS011;26259;50.214;18.620;2023-01-24T11:54:43;71.47;;;36.07;;
22677;SDS011;26259;50.214;18.620;2023-01-24T11:57:34;76.53;;;36.47;;
22677;SDS011;26259;50.214;18.620;2023-01-24T12:00:48;68.23;;;33.63;;
22677;SDS011;26259;50.214;18.620;2023-01-24T12:03:53;75.97;;;37.10;;
22677;SDS011;26259;50.214;18.620;2023-01-24T12:06:47;75.60;;;38.30;;
22677;SDS011;26259;50.214;18.620;2023-01-24T12:09:37;70.00;;;36.17;;
22677;SDS011;26259;50.214;18.620;2023-01-24T12:17:49;65.60;;;34.30;;
22677;SDS011;26259;50.214;18.620;2023-01-24T12:25:52;65.50;;;32.17;;
22677;SDS011;26259;50.214;18.620;2023-01-24T12:28:26;57.53;;;32.13;;
22677;SDS011;26259;50.214;18.620;2023-01-24T12:30:58;56.93;;;32.63;;
22677;SDS011;26259;50.214;18.620;2023-01-24T12:36:22;54.87;;;29.10;;
22677;SDS011;26259;50.214;18.620;2023-01-24T12:38:59;50.40;;;28.47;;
22677;SDS011;26259;50.214;18.620;2023-01-24T12:41:35;52.30;;;26.57;;
22677;SDS011;26259;50.214;18.620;2023-01-24T12:49:31;50.77;;;27.27;;
22677;SDS011;26259;50.214;18.620;2023-01-24T12:54:56;55.13;;;28.57;;
22677;SDS011;26259;50.214;18.620;2023-01-24T12:59:56;54.80;;;29.50;;
22677;SDS011;26259;50.214;18.620;2023-01-24T13:05:20;49.47;;;27.27;;
22677;SDS011;26259;50.214;18.620;2023-01-24T13:13:17;47.00;;;25.20;;
22677;SDS011;26259;50.214;18.620;2023-01-24T13:15:56;46.30;;;25.63;;
22677;SDS011;26259;50.214;18.620;2023-01-24T13:18:38;41.60;;;24.83;;
22677;SDS011;26259;50.214;18.620;2023-01-24T13:21:24;41.30;;;24.80;;
22677;SDS011;26259;50.214;18.620;2023-01-24T13:24:10;43.77;;;26.07;;
22677;SDS011;26259;50.214;18.620;2023-01-24T13:30:21;40.47;;;24.33;;
22677;SDS011;26259;50.214;18.620;2023-01-24T13:32:19;44.03;;;25.03;;
22677;SDS011;26259;50.214;18.620;2023-01-24T13:34:52;48.07;;;28.17;;
22677;SDS011;26259;50.214;18.620;2023-01-24T13:40:04;44.47;;;27.70;;
22677;SDS011;26259;50.214;18.620;2023-01-24T13:42:33;42.30;;;26.20;;
22677;SDS011;26259;50.214;18.620;2023-01-24T13:47:59;43.43;;;25.73;;
22677;SDS011;26259;50.214;18.620;2023-01-24T13:50:26;37.93;;;24.00;;
22677;SDS011;26259;50.214;18.620;2023-01-24T13:52:56;36.93;;;24.40;;
22677;SDS011;26259;50.214;18.620;2023-01-24T14:00:33;40.93;;;26.23;;
22677;SDS011;26259;50.214;18.620;2023-01-24T14:03:23;48.30;;;28.80;;
22677;SDS011;26259;50.214;18.620;2023-01-24T14:10:50;58.70;;;31.87;;
22677;SDS011;26259;50.214;18.620;2023-01-24T14:16:12;60.30;;;33.27;;
22677;SDS011;26259;50.214;18.620;2023-01-24T14:19:14;63.70;;;32.97;;
22677;SDS011;26259;50.214;18.620;2023-01-24T14:21:52;61.93;;;33.33;;
22677;SDS011;26259;50.214;18.620;2023-01-24T14:24:27;62.97;;;34.07;;
22677;SDS011;26259;50.214;18.620;2023-01-24T14:27:29;65.63;;;35.23;;
22677;SDS011;26259;50.214;18.620;2023-01-24T14:32:49;56.93;;;33.37;;
22677;SDS011;26259;50.214;18.620;2023-01-24T14:37:42;56.07;;;29.93;;
22677;SDS011;26259;50.214;18.620;2023-01-24T14:40:10;53.53;;;29.63;;
22677;SDS011;26259;50.214;18.620;2023-01-24T14:42:46;51.30;;;26.43;;
22677;SDS011;26259;50.214;18.620;2023-01-24T14:45:15;45.90;;;26.80;;
22677;SDS011;26259;50.214;18.620;2023-01-24T14:47:45;44.03;;;26.33;;
22677;SDS011;26259;50.214;18.620;2023-01-24T14:53:02;44.27;;;26.10;;
22677;SDS011;26259;50.214;18.620;2023-01-24T14:55:46;45.90;;;27.17;;
22677;SDS011;26259;50.214;18.620;2023-01-24T14:58:13;45.20;;;26.83;;
22677;SDS011;26259;50.214;18.620;2023-01-24T15:00:50;48.13;;;28.57;;
22677;SDS011;26259;50.214;18.620;2023-01-24T15:03:19;42.57;;;25.73;;
22677;SDS011;26259;50.214;18.620;2023-01-24T15:06:01;41.77;;;24.80;;
22677;SDS011;26259;50.214;18.620;2023-01-24T15:08:29;44.73;;;25.50;;
22677;SDS011;26259;50.214;18.620;2023-01-24T15:10:59;40.50;;;24.80;;
22677;SDS011;26259;50.214;18.620;2023-01-24T15:14:01;40.03;;;24.17;;
22677;SDS011;26259;50.214;18.620;2023-01-24T15:16:22;38.83;;;23.47;;
22677;SDS011;26259;50.214;18.620;2023-01-24T15:18:52;43.07;;;25.77;;
22677;SDS011;26259;50.214;18.620;2023-01-24T15:21:23;47.27;;;26.23;;
22677;SDS011;26259;50.214;18.620;2023-01-24T15:23:58;44.50;;;26.70;;
22677;SDS011;26259;50.214;18.620;2023-01-24T15:28:55;63.00;;;36.27;;
22677;SDS011;26259;50.214;18.620;2023-01-24T15:31:22;48.67;;;27.93;;
22677;SDS011;26259;50.214;18.620;2023-01-24T15:33:57;45.13;;;26.73;;
22677;SDS011;26259;50.214;18.620;2023-01-24T15:36:31;42.40;;;27.60;;
22677;SDS011;26259;50.214;18.620;2023-01-24T15:38:58;49.47;;;28.90;;
22677;SDS011;26259;50.214;18.620;2023-01-24T15:41:28;47.10;;;29.30;;
22677;SDS011;26259;50.214;18.620;2023-01-24T15:44:18;47.20;;;28.80;;
22677;SDS011;26259;50.214;18.620;2023-01-24T15:46:44;62.13;;;36.30;;
22677;SDS011;26259;50.214;18.620;2023-01-24T15:49:59;49.40;;;28.03;;
22677;SDS011;26259;50.214;18.620;2023-01-24T15:52:45;46.30;;;26.30;;
22677;SDS011;26259;50.214;18.620;2023-01-24T15:55:11;47.57;;;26.43;;
22677;SDS011;26259;50.214;18.620;2023-01-24T15:57:37;46.10;;;27.03;;
22677;SDS011;26259;50.214;18.620;2023-01-24T16:02:31;48.40;;;28.03;;
22677;SDS011;26259;50.214;18.620;2023-01-24T16:04:57;53.50;;;29.23;;
22677;SDS011;26259;50.214;18.620;2023-01-24T16:07:23;46.17;;;28.03;;
22677;SDS011;26259;50.214;18.620;2023-01-24T16:09:49;61.97;;;35.30;;
22677;SDS011;26259;50.214;18.620;2023-01-24T16:12:15;43.43;;;26.27;;
22677;SDS011;26259;50.214;18.620;2023-01-24T16:14:45;54.10;;;31.27;;
22677;SDS011;26259;50.214;18.620;2023-01-24T16:17:19;47.80;;;26.90;;
22677;SDS011;26259;50.214;18.620;2023-01-24T16:19:46;44.57;;;25.43;;
22677;SDS011;26259;50.214;18.620;2023-01-24T16:22:12;43.30;;;26.53;;
22677;SDS011;26259;50.214;18.620;2023-01-24T16:24:38;42.03;;;26.33;;
22677;SDS011;26259;50.214;18.620;2023-01-24T16:27:04;45.40;;;28.20;;
22677;SDS011;26259;50.214;18.620;2023-01-24T16:29:30;46.50;;;26.77;;